Nearby METAR Reports

 

KFFZ - Mesa/Falcon Fld, Arizona, USA
Distance from station: ENE 9mi, 15km
Updated: Thu, 23-May-2019 12:54pm MST
Clear
Clear
 Wind from SSW
Wind: SSW 14 mph , 22 km/h, Gust: 20 mph , 31 km/h
Temperature: 70°F , 21°C
Dew Point: 34°F , 1°C
Humidity: 27%
Barometer: 29.99 inHg , 1015.6 hPa
Clouds: Clear
Visibility: 10 miles , 16 km
2019/05/23 19:54 KFFZ 231954Z 21012G17KT 10SM CLR 21/01 A2999 RMK AO2 SLP137 T02110011
KIWA - Chandler/Mesa, Arizona, USA
Distance from station: ESE 14mi, 22km
Updated: Thu, 23-May-2019 12:47pm MST
Mostly Cloudy
Mostly Cloudy
 Wind from W
Wind: W 8 mph , 13 km/h
Temperature: 70°F , 21°C
Dew Point: 37°F , 3°C
Humidity: 31%
Barometer: 30.00 inHg , 1015.9 hPa
Clouds: Mostly Cloudy
Visibility: 45 miles , 72 km
Cloud details: Mostly Cloudy 5000 ft
2019/05/23 19:47 KIWA 231947Z 27007KT 45SM BKN050 21/03 A3000
 
KFLG - Flagstaff, Arizona, USA
Distance from station: N 120mi, 193km
Updated: Thu, 23-May-2019 12:57pm MST
Overcast
Overcast
 Wind from SSW
Wind: SSW 20 mph , 31 km/h, Gust: 30 mph , 48 km/h
Temperature: 36°F , 2°C
Wind Chill: 25°F , -4°C
Dew Point: 34°F , 1°C
Humidity: 93%
Barometer: 30.02 inHg , 1016.6 hPa
Clouds: Overcast
Visibility: 9 miles , 14 km
Cloud details: Mostly Cloudy 700 ft
Overcast 1200 ft
2019/05/23 19:57 KFLG 231957Z 21017G26KT 9SM UP BKN007 OVC012 02/01 A3002 RMK AO2 PK WND 22027/1900 UPB18E28B44SNE18B28E44B55E57 SLP146 P0000 T00170006
KTUS - Tucson, Arizona, USA
Distance from station: SSE 102mi, 164km
Updated: Thu, 23-May-2019 12:53pm MST
Clear
Clear
 Wind from NNW
Wind: NNW 3 mph , 6 km/h, Gust: 17 mph , 28 km/h
Temperature: 72°F , 22°C
Dew Point: 32°F , 0°C
Humidity: 23%
Barometer: 30.01 inHg , 1016.3 hPa
Clouds: Clear
Visibility: 10 miles , 16 km
2019/05/23 19:53 KTUS 231953Z 33003G15KT 10SM CLR 22/00 A3001 RMK AO2 SLP131 T02170000
 
KSOW - Show Low Municip, Arizona, USA
Distance from station: ENE 122mi, 196km
Updated: Thu, 23-May-2019 12:55pm MST
Partly Cloudy
Partly Cloudy
 Wind from SSW
Wind: SSW 25 mph , 41 km/h, Gust: 33 mph , 54 km/h
Temperature: 48°F , 9°C
Wind Chill: 40°F , 4°C
Dew Point: 37°F , 3°C
Humidity: 66%
Barometer: 30.04 inHg , 1017.3 hPa
Clouds: Partly Cloudy
Visibility: 10 miles , 16 km
Cloud details: Few Clouds 1700 ft
Partly Cloudy 3100 ft
Partly Cloudy 7000 ft
2019/05/23 19:55 KSOW 231955Z AUTO 21022G29KT 10SM FEW017 SCT031 SCT070 09/03 A3004 RMK AO2
KINW - Winslow, Arizona, USA
Distance from station: NNE 130mi, 209km
Updated: Thu, 23-May-2019 12:56pm MST
Partly Cloudy
Partly Cloudy
 Wind from SSW
Wind: SSW 23 mph , 37 km/h, Gust: 35 mph , 56 km/h
Temperature: 57°F , 14°C
Dew Point: 30°F , -1°C
Humidity: 36%
Barometer: 30.00 inHg , 1015.9 hPa
Clouds: Partly Cloudy
Visibility: 10 miles , 16 km
Cloud details: Partly Cloudy 5500 ft
2019/05/23 19:56 KINW 231956Z AUTO 21020G30KT 10SM SCT055 14/M01 A3000 RMK AO2 PK WND 22034/1914 SLP124 T01441006
 
KPRC - Prescott, Arizona, USA
Distance from station: NNW 92mi, 148km
Updated: Thu, 23-May-2019 12:53pm MST
Overcast
Overcast
 Wind from S
Wind: S 15 mph , 24 km/h
Temperature: 48°F , 9°C
Wind Chill: 42°F , 6°C
Dew Point: 36°F , 2°C
Humidity: 62%
Barometer: 30.03 inHg , 1016.9 hPa
Clouds: Overcast
Visibility: 10 miles , 16 km
Cloud details: Mostly Cloudy 3400 ft
Mostly Cloudy 4200 ft
Overcast 6000 ft
2019/05/23 19:53 KPRC 231953Z 19013KT 10SM BKN034 BKN042 OVC060 09/02 A3003 RMK AO2 SLP138 T00890022
KPAN - Payson, Arizona, USA
Distance from station: NNE 66mi, 106km
Updated: Thu, 23-May-2019 12:55pm MST
Overcast
Overcast
 Wind from S
Wind: S 9 mph , 15 km/h, Gust: 16 mph , 26 km/h
Temperature: 48°F , 9°C
Wind Chill: 44°F , 7°C
Dew Point: 37°F , 3°C
Humidity: 66%
Barometer: 30.08 inHg , 1018.6 hPa
Clouds: Overcast
Visibility: 10 miles , 16 km
Cloud details: Few Clouds 2500 ft
Overcast 3500 ft
2019/05/23 19:55 KPAN 231955Z AUTO 19008G14KT 10SM FEW025 OVC035 09/03 A3008 RMK AO2
 
KSEZ - Sedona, Arizona, USA
Distance from station: N 100mi, 161km
Updated: Thu, 23-May-2019 11:35am MST
NOT Current
Rain, Overcast
Rain, Overcast
 Wind from SSW
Wind: SSW 3 mph , 6 km/h
Temperature: 43°F , 6°C
Dew Point: 41°F , 5°C
Humidity: 93%
Barometer: 30.02 inHg , 1016.6 hPa
Summary: Rain
Clouds: Overcast
Visibility: 5 miles , 8 km
Cloud details: Mostly Cloudy 2100 ft
Overcast 2700 ft
2019/05/23 18:35 KSEZ 231835Z AUTO 20003KT 5SM RA BKN021 OVC027 06/05 A3002 RMK AO2 P0001
KSAD - Safford, Arizona, USA
Distance from station: ESE 150mi, 241km
Updated: Thu, 23-May-2019 12:51pm MST
Clear
Clear
 Wind from NNE
Wind: NNE 7 mph , 11 km/h
Temperature: 72°F , 22°C
Dew Point: 28°F , -2°C
Humidity: 20%
Barometer: 29.98 inHg , 1015.2 hPa
Clouds: Clear
Visibility: 10 miles , 16 km
2019/05/23 19:51 KSAD 231951Z AUTO 02006KT 10SM CLR 22/M02 A2998 RMK AO2 SLP115 T02221022